This is the latest recevied weather packets stored in our database for station/object WA4IKQ. If no packets are shown the sender has not sent any weather packets the latest 10 day(s).
| Time | Temp. | Humidity | Pressure | Rain* | Wind** | Luminosity | Snow |
|---|---|---|---|---|---|---|---|
| 1777609790 | 25.56° C | 73% | 1011.7 hPa | 0 mm | 0.89 m/s, 194° | - | - |
| 1777609683 | 25.56° C | 73% | 1011.7 hPa | 0 mm | 0.89 m/s, 194° | - | - |
| 1777609419 | 25.56° C | 73% | 1011.6 hPa | 0 mm | 3.13 m/s, 210° | - | - |
| 1777609383 | 25.56° C | 73% | 1011.6 hPa | 0 mm | 3.13 m/s, 210° | - | - |
| 1777608829 | 25.56° C | 72% | 1011.7 hPa | 0 mm | 1.34 m/s, 242° | - | - |
| 1777608781 | 25.56° C | 72% | 1011.7 hPa | 0 mm | 1.34 m/s, 242° | - | - |
| 1777608595 | 25.56° C | 72% | 1011.5 hPa | 0 mm | 1.79 m/s, 208° | - | - |
| 1777608481 | 25.56° C | 72% | 1011.5 hPa | 0 mm | 1.79 m/s, 208° | - | - |
| 1777608218 | 25.56° C | 72% | 1011.7 hPa | 0 mm | 2.24 m/s, 273° | - | - |
| 1777608182 | 25.56° C | 72% | 1011.7 hPa | 0 mm | 2.24 m/s, 273° | - | - |
| 1777607920 | 25.56° C | 72% | 1011.7 hPa | 0 mm | 0.89 m/s, 242° | - | - |
| 1777607882 | 25.56° C | 72% | 1011.7 hPa | 0 mm | 0.89 m/s, 242° | - | - |
| 1777607613 | 25.56° C | 72% | 1011.7 hPa | 0 mm | 0.45 m/s, 205° | - | - |
| 1777607582 | 25.56° C | 72% | 1011.7 hPa | 0 mm | 0.45 m/s, 205° | - | - |
| 1777607371 | 26.11° C | 71% | 1011.6 hPa | 0 mm | 0.89 m/s, 248° | - | - |
| 1777607333 | 26.11° C | 71% | 1011.6 hPa | 0 mm | 0.89 m/s, 248° | - | - |
| 1777607282 | 26.11° C | 71% | 1011.6 hPa | 0 mm | 0.89 m/s, 248° | - | - |
| 1777607036 | 26.11° C | 71% | 1011.8 hPa | 0 mm | 0 m/s | - | - |
| 1777606979 | 26.11° C | 71% | 1011.8 hPa | 0 mm | 0 m/s | - | - |
| 1777606736 | 26.11° C | 71% | 1011.8 hPa | 0 mm | 1.79 m/s, 264° | - | - |
| 1777606680 | 26.11° C | 71% | 1011.8 hPa | 0 mm | 1.79 m/s, 264° | - | - |
| 1777606432 | 26.11° C | 70% | 1011.7 hPa | 0 mm | 1.34 m/s, 248° | - | - |
| 1777606380 | 26.11° C | 70% | 1011.7 hPa | 0 mm | 1.34 m/s, 248° | - | - |
| 1777606192 | 26.11° C | 69% | 1011.7 hPa | 0 mm | 1.34 m/s, 256° | - | - |
| 1777606080 | 26.11° C | 69% | 1011.7 hPa | 0 mm | 1.34 m/s, 256° | - | - |
* Rain latest hour (hover to see other rain measurements)
** Current wind speed in m/s (hover to see current wind gust speed)